Time;durP1;ratioP1;P1;durP2;ratioP2;P2;SDS_P1;SDS_P2;PMS_P1;PMS_P2;Temp;Humidity;BMP_temperature;BMP_pressure;BME280_temperature;BME280_humidity;BME280_pressure;Samples;Min_cycle;Max_cycle;Signal;HPM_P1;HPM_P2
2021/06/14 00:02:05;;;;;;;6.75;3.17;;;18.70;88.50;;;;;;5032240;28;20045;-67
2021/06/14 00:04:31;;;;;;;7.88;3.30;;;18.70;88.90;;;;;;5037686;28;20029;-67
2021/06/14 00:06:57;;;;;;;6.88;3.40;;;18.70;89.20;;;;;;5032628;28;20026;-67
2021/06/14 00:09:24;;;;;;;6.63;3.08;;;18.70;89.40;;;;;;5032911;28;20036;-67
2021/06/14 00:11:51;;;;;;;5.35;3.35;;;18.60;89.90;;;;;;5029264;28;20080;-67
2021/06/14 00:14:18;;;;;;;6.57;3.22;;;18.60;90.20;;;;;;5025410;28;20041;-67
2021/06/14 00:16:43;;;;;;;7.85;3.35;;;18.60;90.20;;;;;;5041441;28;20526;-67
2021/06/14 00:19:09;;;;;;;6.72;3.63;;;18.60;90.10;;;;;;5025784;28;20159;-67
2021/06/14 00:21:36;;;;;;;11.77;4.55;;;18.50;90.20;;;;;;5032522;28;20391;-67
2021/06/14 00:24:03;;;;;;;9.18;3.92;;;18.50;90.50;;;;;;5039901;28;20049;-67
2021/06/14 00:26:29;;;;;;;6.82;4.35;;;18.50;90.70;;;;;;5029629;28;20249;-67
2021/06/14 00:28:54;;;;;;;7.00;4.60;;;18.50;90.70;;;;;;5040931;28;20515;-67
2021/06/14 00:31:20;;;;;;;11.55;4.68;;;18.40;90.90;;;;;;5034381;28;20025;-67
2021/06/14 00:33:46;;;;;;;9.35;4.65;;;18.40;91.00;;;;;;5031449;28;20024;-67
2021/06/14 00:36:12;;;;;;;10.07;4.85;;;18.40;91.10;;;;;;5024972;28;20029;-67
2021/06/14 00:38:37;;;;;;;13.25;5.78;;;18.40;91.50;;;;;;5031172;28;20033;-67
2021/06/14 00:41:05;;;;;;;7.43;4.72;;;18.40;91.60;;;;;;5025977;28;20032;-67
2021/06/14 00:43:33;;;;;;;11.80;6.10;;;18.40;91.70;;;;;;5032064;28;20033;-67
2021/06/14 00:45:59;;;;;;;8.73;5.22;;;18.30;91.50;;;;;;5040566;28;20048;-67
2021/06/14 00:48:25;;;;;;;10.93;5.90;;;18.30;91.30;;;;;;5030724;28;20021;-67
2021/06/14 00:50:52;;;;;;;11.13;6.10;;;18.30;91.10;;;;;;5030725;28;20029;-67
2021/06/14 00:53:19;;;;;;;13.63;6.63;;;18.30;91.00;;;;;;5024112;28;20029;-67
2021/06/14 00:55:46;;;;;;;11.48;6.07;;;18.30;90.80;;;;;;5013958;28;20018;-67
2021/06/14 00:58:12;;;;;;;15.88;6.70;;;18.30;90.70;;;;;;5017963;28;20017;-67
2021/06/14 01:00:39;;;;;;;9.98;6.50;;;18.30;90.70;;;;;;5024983;28;20462;-67
2021/06/14 01:03:05;;;;;;;12.10;7.00;;;18.30;90.80;;;;;;5048626;28;20135;-67
2021/06/14 01:05:37;;;;;;;9.25;6.07;;;18.20;91.00;;;;;;5020595;28;20437;-67
2021/06/14 01:08:03;;;;;;;15.32;7.07;;;18.20;91.40;;;;;;5019260;28;20025;-67
2021/06/14 01:10:29;;;;;;;12.57;7.03;;;18.20;91.90;;;;;;5025701;28;20414;-67
2021/06/14 01:13:07;;;;;;;10.63;6.72;;;18.20;92.10;;;;;;5024558;28;20082;-67
2021/06/14 01:15:41;;;;;;;15.95;8.77;;;18.10;92.30;;;;;;5032726;28;20026;-68
2021/06/14 01:18:11;;;;;;;10.45;7.30;;;18.10;92.20;;;;;;5024520;28;20100;-68
2021/06/14 01:21:00;;;;;;;18.58;8.70;;;18.10;92.60;;;;;;5030893;28;20029;-68
2021/06/14 01:24:08;;;;;;;12.38;8.43;;;18.10;92.20;;;;;;5025117;28;20025;-67
2021/06/14 01:26:43;;;;;;;16.40;9.77;;;18.00;92.30;;;;;;5025544;28;20072;-67
2021/06/14 01:29:10;;;;;;;13.88;9.05;;;18.00;92.50;;;;;;5026169;28;20017;-67
2021/06/14 01:31:37;;;;;;;14.25;9.52;;;18.00;92.60;;;;;;5035856;28;20022;-67
2021/06/14 01:34:04;;;;;;;16.33;9.25;;;18.00;92.70;;;;;;5040648;28;20025;-68
2021/06/14 01:36:34;;;;;;;16.15;9.52;;;17.90;92.70;;;;;;5038866;28;20521;-67
2021/06/14 01:39:03;;;;;;;11.80;9.13;;;17.90;92.70;;;;;;5031115;28;20022;-67
2021/06/14 01:41:31;;;;;;;13.32;9.63;;;17.90;92.80;;;;;;5030826;28;20013;-67
2021/06/14 01:43:58;;;;;;;10.77;8.40;;;17.90;92.80;;;;;;5033071;28;20022;-67
2021/06/14 01:46:28;;;;;;;14.77;9.32;;;17.90;92.90;;;;;;5030855;28;20013;-67
2021/06/14 01:48:55;;;;;;;15.70;9.82;;;17.90;92.90;;;;;;5031019;28;20490;-67
2021/06/14 01:51:28;;;;;;;16.00;9.40;;;17.80;93.20;;;;;;5026035;28;20025;-67
2021/06/14 01:54:05;;;;;;;13.50;9.40;;;17.80;93.00;;;;;;5029964;28;20033;-67
2021/06/14 01:56:41;;;;;;;18.67;9.35;;;17.80;93.10;;;;;;5030249;28;20026;-67
2021/06/14 01:59:09;;;;;;;17.15;9.80;;;17.70;93.10;;;;;;5038847;28;20021;-66
2021/06/14 02:01:38;;;;;;;13.73;9.30;;;17.70;93.10;;;;;;5036072;28;20493;-66
2021/06/14 02:04:04;;;;;;;13.95;8.60;;;17.70;93.10;;;;;;5024417;28;20060;-66
2021/06/14 02:06:35;;;;;;;17.90;9.82;;;17.70;93.20;;;;;;5030057;28;20021;-66
2021/06/14 02:09:06;;;;;;;16.48;9.60;;;17.70;93.30;;;;;;5033757;28;20032;-67
2021/06/14 02:11:33;;;;;;;14.45;10.48;;;17.60;93.30;;;;;;5030272;28;20026;-67
2021/06/14 02:13:59;;;;;;;18.27;9.65;;;17.60;93.40;;;;;;5030634;28;20526;-67
2021/06/14 02:16:26;;;;;;;18.77;9.93;;;17.60;93.40;;;;;;5038838;28;20040;-67
2021/06/14 02:18:51;;;;;;;16.15;9.95;;;17.60;93.40;;;;;;5034971;28;20014;-67
2021/06/14 02:21:18;;;;;;;17.33;9.57;;;17.60;93.50;;;;;;5029455;28;20106;-68
2021/06/14 02:23:44;;;;;;;15.10;9.90;;;17.60;93.60;;;;;;5029188;28;20017;-68
2021/06/14 02:26:10;;;;;;;20.08;10.50;;;17.60;93.80;;;;;;5050067;28;20025;-67
2021/06/14 02:28:36;;;;;;;17.45;10.98;;;17.50;94.00;;;;;;5033064;28;20017;-68
2021/06/14 02:31:02;;;;;;;18.23;10.35;;;17.50;94.30;;;;;;5029721;28;20045;-68
2021/06/14 02:33:28;;;;;;;17.00;10.57;;;17.50;94.50;;;;;;5037388;28;20021;-68
2021/06/14 02:35:53;;;;;;;18.85;11.02;;;17.40;94.60;;;;;;5035045;28;20029;-68
2021/06/14 02:38:19;;;;;;;23.75;11.35;;;17.40;94.70;;;;;;5030155;28;20466;-67
2021/06/14 02:40:45;;;;;;;16.40;9.98;;;17.40;94.70;;;;;;5021324;28;20079;-68
2021/06/14 02:43:11;;;;;;;15.27;9.75;;;17.40;94.70;;;;;;5030051;28;20360;-68
2021/06/14 02:45:38;;;;;;;14.85;9.57;;;17.40;94.80;;;;;;5029625;28;20021;-68
2021/06/14 02:48:06;;;;;;;17.75;10.52;;;17.30;94.90;;;;;;5030265;28;20435;-68
2021/06/14 02:50:34;;;;;;;16.67;11.10;;;17.30;94.90;;;;;;5043314;28;20055;-68
2021/06/14 02:53:04;;;;;;;18.08;11.05;;;17.30;95.20;;;;;;5030417;28;20104;-67
2021/06/14 02:55:34;;;;;;;19.80;12.07;;;17.30;95.40;;;;;;5033507;28;20112;-68
2021/06/14 02:58:01;;;;;;;17.77;11.52;;;17.20;95.50;;;;;;5029162;28;20013;-67
2021/06/14 03:00:30;;;;;;;16.05;10.45;;;17.20;95.60;;;;;;5025319;28;20026;-68
2021/06/14 03:03:04;;;;;;;19.17;13.20;;;17.20;95.70;;;;;;5027843;28;20096;-67
2021/06/14 03:05:30;;;;;;;19.30;11.35;;;17.10;95.70;;;;;;5029005;28;20032;-68
2021/06/14 03:08:00;;;;;;;20.25;11.38;;;17.20;95.70;;;;;;5040597;28;20024;-68
2021/06/14 03:10:28;;;;;;;22.13;11.95;;;17.20;95.60;;;;;;5034400;28;20061;-68
2021/06/14 03:12:56;;;;;;;21.48;11.57;;;17.20;95.60;;;;;;5029467;28;20026;-68
2021/06/14 03:15:23;;;;;;;17.92;11.63;;;17.20;95.60;;;;;;5034397;28;20472;-68
2021/06/14 03:17:51;;;;;;;19.15;11.68;;;17.10;95.40;;;;;;5028735;28;20030;-67
2021/06/14 03:20:18;;;;;;;18.15;10.85;;;17.10;95.30;;;;;;5032321;28;20040;-67
2021/06/14 03:22:44;;;;;;;20.33;10.98;;;17.20;95.30;;;;;;5030408;28;20028;-67
2021/06/14 03:25:10;;;;;;;19.58;11.52;;;17.10;95.10;;;;;;5032526;28;20550;-68
2021/06/14 03:27:37;;;;;;;21.48;11.20;;;17.10;95.20;;;;;;5025910;28;20037;-68
2021/06/14 03:30:03;;;;;;;20.98;11.27;;;17.10;95.10;;;;;;5036333;28;20541;-68
2021/06/14 03:32:29;;;;;;;17.25;11.70;;;17.20;95.00;;;;;;5030150;28;20079;-68
2021/06/14 03:34:55;;;;;;;20.60;11.02;;;17.20;95.00;;;;;;5036714;28;20434;-67
2021/06/14 03:37:21;;;;;;;16.48;10.63;;;17.20;95.00;;;;;;5035398;28;20075;-68
2021/06/14 03:39:47;;;;;;;20.95;11.95;;;17.20;94.90;;;;;;5041201;28;20033;-67
2021/06/14 03:42:20;;;;;;;22.23;10.85;;;17.30;94.80;;;;;;5044362;28;20024;-67
2021/06/14 03:44:46;;;;;;;18.85;11.75;;;17.30;94.60;;;;;;5029714;28;20026;-67
2021/06/14 03:47:11;;;;;;;18.67;10.95;;;17.40;94.60;;;;;;5031968;28;20075;-67
2021/06/14 03:49:37;;;;;;;19.33;10.88;;;17.50;94.60;;;;;;5027339;28;20034;-67
2021/06/14 03:52:03;;;;;;;15.75;9.90;;;17.60;94.50;;;;;;5028408;28;20052;-67
2021/06/14 03:54:28;;;;;;;18.00;10.13;;;17.60;94.60;;;;;;5036011;28;20048;-67
2021/06/14 03:56:54;;;;;;;17.17;10.93;;;17.70;94.60;;;;;;5040616;28;20022;-67
2021/06/14 03:59:20;;;;;;;20.30;11.13;;;17.90;94.60;;;;;;5040030;28;20021;-67
2021/06/14 04:01:45;;;;;;;14.05;9.75;;;18.10;94.70;;;;;;5027152;28;20506;-67
2021/06/14 04:06:56;;;;;;;15.32;10.38;;;18.50;94.40;;;;;;5032556;28;20112;-67
2021/06/14 04:09:21;;;;;;;14.20;9.82;;;18.80;94.30;;;;;;5029293;28;20112;-67
2021/06/14 04:11:47;;;;;;;16.35;10.30;;;19.00;94.10;;;;;;5020384;28;20028;-68
2021/06/14 04:14:12;;;;;;;17.63;9.25;;;19.20;93.80;;;;;;5026644;28;20108;-67
2021/06/14 04:16:38;;;;;;;15.57;9.05;;;19.50;93.50;;;;;;5030959;28;20479;-67
2021/06/14 04:19:03;;;;;;;17.83;9.63;;;19.70;93.20;;;;;;5031790;28;20107;-67
2021/06/14 04:21:29;;;;;;;18.33;9.48;;;19.90;92.80;;;;;;5030853;28;20096;-67
2021/06/14 04:23:54;;;;;;;15.95;9.82;;;20.10;92.20;;;;;;5030469;28;20021;-67
2021/06/14 04:26:20;;;;;;;16.08;9.45;;;20.10;91.40;;;;;;5034745;28;20419;-67
2021/06/14 04:28:46;;;;;;;16.80;9.90;;;20.00;90.80;;;;;;5031278;28;20009;-67
2021/06/14 04:31:11;;;;;;;14.07;8.77;;;19.90;90.90;;;;;;5030999;28;20030;-67
2021/06/14 04:33:37;;;;;;;18.88;10.07;;;19.80;91.10;;;;;;5029687;28;20016;-68
2021/06/14 04:36:04;;;;;;;16.25;10.07;;;19.60;91.10;;;;;;5028870;28;20032;-67
2021/06/14 04:38:30;;;;;;;21.05;11.27;;;19.50;90.90;;;;;;5034362;28;20018;-67
2021/06/14 04:40:55;;;;;;;17.10;10.25;;;19.30;90.90;;;;;;5031888;28;20055;-67
2021/06/14 04:43:21;;;;;;;17.27;10.13;;;19.10;91.10;;;;;;5035082;28;20108;-67
2021/06/14 04:45:46;;;;;;;17.77;10.38;;;18.90;91.30;;;;;;5030573;28;20398;-67
2021/06/14 04:48:12;;;;;;;16.05;10.65;;;18.90;91.40;;;;;;5036826;28;20120;-67
2021/06/14 04:50:37;;;;;;;16.77;9.85;;;18.90;91.50;;;;;;5028882;28;20025;-67
2021/06/14 04:53:03;;;;;;;17.15;9.57;;;19.10;91.70;;;;;;5028368;28;20018;-67
2021/06/14 04:55:29;;;;;;;15.98;10.05;;;19.30;91.50;;;;;;5034820;28;20025;-67
2021/06/14 04:57:54;;;;;;;16.45;10.38;;;19.50;91.20;;;;;;5034378;28;20021;-67
2021/06/14 05:00:21;;;;;;;16.73;9.35;;;19.60;91.20;;;;;;5041256;28;20027;-67
2021/06/14 05:02:46;;;;;;;17.48;10.35;;;19.70;90.90;;;;;;5024095;28;20509;-67
2021/06/14 05:05:12;;;;;;;18.63;10.93;;;19.80;90.50;;;;;;5025390;28;20017;-67
2021/06/14 05:07:38;;;;;;;14.32;9.23;;;19.80;90.30;;;;;;5031886;28;20029;-67
2021/06/14 05:10:04;;;;;;;18.65;10.23;;;19.90;90.30;;;;;;5035346;28;20026;-67
2021/06/14 05:12:30;;;;;;;14.73;9.20;;;19.80;90.30;;;;;;5025637;28;20440;-67
2021/06/14 05:14:55;;;;;;;21.42;10.38;;;19.70;90.20;;;;;;5029563;28;20025;-67
2021/06/14 05:17:21;;;;;;;21.48;10.48;;;19.60;90.30;;;;;;5033924;28;20166;-67
2021/06/14 05:19:47;;;;;;;21.52;9.05;;;19.60;90.20;;;;;;5039212;28;20104;-66
2021/06/14 05:22:14;;;;;;;16.15;9.95;;;19.60;90.10;;;;;;5024657;28;20071;-66
2021/06/14 05:24:40;;;;;;;15.85;9.77;;;19.70;90.30;;;;;;5047321;28;20021;-67
2021/06/14 05:27:06;;;;;;;18.65;8.73;;;19.90;90.30;;;;;;5034488;28;20033;-67
2021/06/14 05:29:31;;;;;;;15.98;9.07;;;20.30;90.40;;;;;;5028426;28;20648;-67
2021/06/14 05:31:57;;;;;;;14.77;8.00;;;20.80;90.00;;;;;;5027306;28;20144;-66
2021/06/14 05:34:23;;;;;;;13.00;7.20;;;21.30;88.80;;;;;;5037046;28;20071;-66
2021/06/14 05:36:49;;;;;;;16.50;7.60;;;21.90;86.60;;;;;;5027668;28;20078;-66
2021/06/14 05:39:15;;;;;;;15.18;7.00;;;22.40;85.00;;;;;;5019577;28;20536;-65
2021/06/14 05:41:40;;;;;;;16.70;6.88;;;22.90;81.10;;;;;;5022231;28;20033;-64
2021/06/14 05:44:06;;;;;;;8.38;5.88;;;23.40;80.20;;;;;;5030033;28;20394;-64
2021/06/14 05:46:31;;;;;;;13.35;5.90;;;23.80;78.10;;;;;;5033010;28;20035;-64
2021/06/14 05:48:57;;;;;;;12.02;5.22;;;24.20;76.80;;;;;;5033319;28;20033;-64
2021/06/14 05:51:22;;;;;;;14.00;5.75;;;24.70;74.40;;;;;;5019475;28;20030;-64
2021/06/14 05:53:48;;;;;;;9.43;4.88;;;25.10;71.40;;;;;;5011970;28;20131;-64
2021/06/14 05:56:15;;;;;;;14.15;6.03;;;25.50;69.10;;;;;;5006418;28;20028;-64
2021/06/14 05:58:41;;;;;;;13.82;4.55;;;25.80;67.00;;;;;;5017713;28;20021;-65
2021/06/14 06:01:07;;;;;;;10.88;4.28;;;26.10;65.50;;;;;;5008466;28;20026;-64
2021/06/14 06:03:32;;;;;;;10.63;4.30;;;26.50;64.50;;;;;;5014521;28;20037;-65
2021/06/14 06:05:58;;;;;;;12.00;4.78;;;26.80;63.50;;;;;;5006983;28;20036;-64
2021/06/14 06:08:23;;;;;;;13.30;4.80;;;27.20;62.20;;;;;;5005261;28;20427;-66
2021/06/14 06:10:50;;;;;;;73.50;12.90;;;27.50;60.80;;;;;;5000410;28;20555;-65
2021/06/14 06:13:16;;;;;;;11.18;4.07;;;27.90;59.60;;;;;;5004347;28;20026;-65
2021/06/14 06:15:41;;;;;;;23.33;5.55;;;28.20;58.70;;;;;;5002883;28;20029;-65
2021/06/14 06:18:07;;;;;;;34.63;7.20;;;28.50;58.10;;;;;;5005995;28;20033;-65
2021/06/14 06:20:32;;;;;;;17.15;5.25;;;28.90;57.80;;;;;;4997854;28;20037;-66
2021/06/14 06:22:58;;;;;;;16.35;6.05;;;29.20;56.30;;;;;;5007032;28;20024;-66
2021/06/14 06:25:25;;;;;;;24.58;6.50;;;29.40;54.80;;;;;;5000537;28;20044;-65
2021/06/14 06:27:51;;;;;;;15.00;5.47;;;29.60;54.40;;;;;;5000961;28;20085;-66
2021/06/14 06:30:25;;;;;;;9.70;4.63;;;29.80;53.20;;;;;;5004752;28;20025;-66
2021/06/14 06:32:52;;;;;;;10.85;4.97;;;30.00;52.20;;;;;;5005117;28;20101;-66
2021/06/14 06:35:18;;;;;;;10.40;5.25;;;30.20;52.40;;;;;;5003128;28;20032;-66
2021/06/14 06:37:44;;;;;;;9.25;4.25;;;30.40;51.80;;;;;;5005758;28;20018;-65
2021/06/14 06:40:10;;;;;;;15.93;5.40;;;30.60;51.40;;;;;;5005346;28;20030;-64
2021/06/14 06:42:36;;;;;;;13.10;5.32;;;30.80;50.70;;;;;;4998996;28;20024;-64
2021/06/14 06:45:04;;;;;;;11.85;5.00;;;31.00;49.80;;;;;;5000156;28;20113;-64
2021/06/14 06:47:29;;;;;;;11.68;6.00;;;31.10;49.30;;;;;;5001093;28;20493;-65
2021/06/14 06:49:55;;;;;;;10.38;4.45;;;31.10;49.00;;;;;;5006954;28;20032;-65
2021/06/14 06:52:21;;;;;;;14.68;6.47;;;31.20;48.70;;;;;;5001098;28;20033;-64
2021/06/14 06:54:46;;;;;;;12.45;5.00;;;31.30;48.50;;;;;;5010930;28;20021;-64
2021/06/14 06:57:13;;;;;;;11.05;5.15;;;31.40;48.40;;;;;;4996783;28;20383;-65
2021/06/14 06:59:39;;;;;;;12.52;5.10;;;31.50;47.70;;;;;;5005610;28;20463;-65
2021/06/14 07:02:04;;;;;;;10.63;4.85;;;31.60;48.10;;;;;;5007765;28;20026;-64
2021/06/14 07:04:30;;;;;;;10.90;5.03;;;31.80;48.30;;;;;;5002135;28;20033;-64
2021/06/14 07:06:55;;;;;;;10.50;5.65;;;32.00;47.20;;;;;;4998730;28;20080;-64
2021/06/14 07:09:21;;;;;;;15.93;6.82;;;32.20;46.90;;;;;;4993655;28;20030;-65
2021/06/14 07:11:47;;;;;;;10.32;5.10;;;32.40;46.40;;;;;;4995791;28;20060;-64
2021/06/14 07:14:12;;;;;;;13.15;4.60;;;32.60;46.70;;;;;;5004543;28;20034;-65
2021/06/14 07:16:39;;;;;;;12.55;4.75;;;32.90;46.80;;;;;;4995101;28;20030;-65
2021/06/14 07:19:05;;;;;;;11.27;4.30;;;33.20;45.20;;;;;;4995968;28;20475;-64
2021/06/14 07:21:31;;;;;;;15.68;4.70;;;33.30;44.60;;;;;;4998628;28;20026;-65
2021/06/14 07:23:57;;;;;;;14.88;4.50;;;33.50;44.80;;;;;;4999014;28;20395;-65
2021/06/14 07:26:24;;;;;;;15.00;5.60;;;33.50;44.40;;;;;;5005210;28;20022;-64
2021/06/14 07:28:50;;;;;;;9.82;4.25;;;33.70;44.30;;;;;;4999726;28;20038;-64
2021/06/14 07:31:17;;;;;;;14.82;4.82;;;34.00;44.60;;;;;;5002700;28;20544;-64
2021/06/14 07:33:43;;;;;;;13.30;5.18;;;34.20;44.50;;;;;;4992962;28;20041;-65
2021/06/14 07:36:10;;;;;;;12.10;4.65;;;34.50;44.00;;;;;;5003208;28;20025;-65
2021/06/14 07:38:37;;;;;;;16.10;5.15;;;34.60;43.70;;;;;;4999550;28;20034;-65
2021/06/14 07:41:03;;;;;;;10.55;4.80;;;34.70;42.30;;;;;;5000005;28;20084;-66
2021/06/14 07:43:29;;;;;;;13.80;5.13;;;34.70;42.20;;;;;;4999049;28;20022;-65
2021/06/14 07:45:55;;;;;;;13.50;4.95;;;34.80;42.30;;;;;;5005922;28;20038;-65
2021/06/14 07:48:24;;;;;;;16.13;5.13;;;34.90;42.80;;;;;;5006954;28;20035;-65
2021/06/14 07:50:52;;;;;;;17.60;5.00;;;35.00;42.40;;;;;;5000481;28;20035;-65
2021/06/14 07:53:18;;;;;;;8.82;4.18;;;35.20;42.30;;;;;;5006003;28;20570;-65
2021/06/14 07:55:43;;;;;;;13.13;4.97;;;35.10;41.80;;;;;;4997578;28;20026;-65
2021/06/14 07:58:09;;;;;;;13.57;4.15;;;35.20;42.30;;;;;;4996698;28;20181;-65
2021/06/14 08:00:35;;;;;;;15.40;3.92;;;35.40;41.40;;;;;;4998607;28;20027;-66
2021/06/14 08:03:01;;;;;;;13.15;5.13;;;35.40;40.90;;;;;;5001859;28;20030;-66
2021/06/14 08:05:27;;;;;;;9.68;4.03;;;35.50;40.90;;;;;;5002316;28;20089;-66
2021/06/14 08:07:53;;;;;;;9.98;3.78;;;35.60;40.40;;;;;;5004347;28;20562;-66
2021/06/14 08:10:19;;;;;;;10.60;4.97;;;35.60;40.10;;;;;;5001600;28;20050;-66
2021/06/14 08:12:50;;;;;;;12.15;3.75;;;35.60;40.10;;;;;;4999737;28;20032;-66
2021/06/14 08:15:20;;;;;;;6.78;3.13;;;35.70;40.10;;;;;;5004534;28;20105;-66
2021/06/14 08:17:47;;;;;;;7.65;3.65;;;35.70;39.90;;;;;;4999117;28;20426;-66
2021/06/14 08:20:33;;;;;;;12.85;3.65;;;35.80;40.40;;;;;;5004475;28;20109;-66
2021/06/14 08:25:43;;;;;;;10.60;3.33;;;36.00;39.50;;;;;;5003391;28;20033;-66
2021/06/14 08:28:09;;;;;;;9.65;3.78;;;36.00;39.70;;;;;;5001637;28;20034;-66
2021/06/14 08:30:34;;;;;;;7.38;3.53;;;36.20;39.90;;;;;;5008546;28;20069;-65
2021/06/14 08:33:01;;;;;;;10.65;4.25;;;36.30;39.30;;;;;;4998274;28;20036;-66
2021/06/14 08:35:28;;;;;;;7.72;3.80;;;36.40;38.90;;;;;;5002123;28;20022;-65
2021/06/14 08:37:54;;;;;;;8.70;3.47;;;36.40;38.60;;;;;;5011242;28;20025;-66
2021/06/14 08:40:24;;;;;;;8.13;3.38;;;36.40;38.60;;;;;;5008973;28;20029;-66
2021/06/14 08:42:50;;;;;;;10.77;3.80;;;36.50;38.80;;;;;;5012137;28;20033;-66
2021/06/14 08:45:17;;;;;;;7.95;3.47;;;36.50;38.70;;;;;;5012798;28;20468;-66
2021/06/14 08:47:45;;;;;;;15.73;4.03;;;36.50;38.40;;;;;;5008622;28;20022;-65
2021/06/14 08:50:13;;;;;;;16.48;3.33;;;36.50;38.70;;;;;;5010876;28;20813;-66
2021/06/14 08:52:38;;;;;;;8.35;3.33;;;36.60;38.70;;;;;;5005664;28;20480;-65
2021/06/14 08:55:08;;;;;;;8.75;3.00;;;36.70;39.90;;;;;;5009009;28;20030;-65
2021/06/14 08:57:33;;;;;;;8.35;2.85;;;36.80;38.70;;;;;;5008118;28;20018;-65
2021/06/14 08:59:59;;;;;;;11.45;3.50;;;36.80;38.30;;;;;;5014779;28;20025;-66
2021/06/14 09:02:25;;;;;;;7.95;3.15;;;36.80;38.10;;;;;;5017480;28;20026;-66
2021/06/14 09:04:51;;;;;;;8.57;3.22;;;36.80;38.40;;;;;;5016926;28;20038;-66
2021/06/14 09:07:17;;;;;;;7.55;2.85;;;36.80;38.10;;;;;;5017007;28;20029;-66
2021/06/14 09:09:44;;;;;;;5.78;2.20;;;36.80;37.80;;;;;;5014688;28;20088;-65
2021/06/14 09:12:10;;;;;;;9.80;3.28;;;36.80;37.50;;;;;;5017932;28;20032;-66
2021/06/14 09:14:38;;;;;;;8.80;2.83;;;36.70;37.90;;;;;;5007403;28;20422;-65
2021/06/14 09:17:17;;;;;;;11.80;3.25;;;36.70;37.50;;;;;;5017157;28;20022;-65
2021/06/14 09:19:53;;;;;;;9.50;3.10;;;36.70;37.40;;;;;;5011729;28;20110;-65
2021/06/14 09:22:24;;;;;;;7.53;3.55;;;36.60;37.40;;;;;;5011372;28;20048;-65
2021/06/14 09:24:59;;;;;;;8.55;3.50;;;36.50;37.40;;;;;;5026920;28;20112;-65
2021/06/14 09:27:41;;;;;;;12.07;4.47;;;36.50;38.30;;;;;;5012520;28;20053;-65
2021/06/14 09:30:25;;;;;;;7.13;3.28;;;36.50;38.90;;;;;;5019293;28;20036;-65
2021/06/14 09:33:05;;;;;;;9.23;3.88;;;36.50;39.70;;;;;;5021134;28;20029;-65
2021/06/14 09:35:40;;;;;;;8.07;3.65;;;36.50;39.00;;;;;;5018380;28;20472;-65
2021/06/14 09:38:07;;;;;;;12.35;3.95;;;36.60;39.40;;;;;;5017286;28;20068;-65
2021/06/14 09:40:47;;;;;;;9.23;3.67;;;36.60;40.10;;;;;;5012627;28;20032;-65
2021/06/14 09:43:31;;;;;;;9.80;3.95;;;36.60;38.40;;;;;;5004512;28;20105;-65
2021/06/14 09:46:04;;;;;;;12.95;4.00;;;36.50;38.30;;;;;;5004503;28;20091;-66
2021/06/14 09:48:30;;;;;;;14.50;4.32;;;36.40;40.00;;;;;;5005013;28;20061;-65
2021/06/14 09:51:00;;;;;;;10.10;3.78;;;36.30;39.60;;;;;;5003697;28;20047;-65
2021/06/14 09:53:34;;;;;;;9.10;3.42;;;36.20;39.40;;;;;;5007049;28;20046;-65
2021/06/14 09:55:59;;;;;;;10.82;3.60;;;36.20;39.10;;;;;;5004504;28;20356;-65
2021/06/14 09:58:26;;;;;;;11.57;3.85;;;36.00;39.00;;;;;;5007458;28;20085;-65
2021/06/14 10:01:04;;;;;;;22.38;4.28;;;36.10;39.30;;;;;;5003011;28;20103;-65
2021/06/14 10:03:43;;;;;;;11.48;3.15;;;36.10;39.90;;;;;;5006613;28;20053;-65
2021/06/14 10:06:09;;;;;;;7.80;3.20;;;36.00;38.40;;;;;;5004288;28;20025;-66
2021/06/14 10:08:35;;;;;;;9.65;3.78;;;35.90;39.60;;;;;;5018236;28;20076;-66
2021/06/14 10:11:16;;;;;;;9.95;4.10;;;35.80;39.50;;;;;;5021247;28;20083;-66
2021/06/14 10:13:46;;;;;;;6.80;3.50;;;35.80;38.80;;;;;;5003958;28;20535;-65
2021/06/14 10:16:20;;;;;;;11.80;3.90;;;35.70;39.40;;;;;;5006089;28;20088;-65
2021/06/14 10:18:55;;;;;;;9.77;3.35;;;35.60;39.60;;;;;;4996418;28;20671;-65
2021/06/14 10:21:39;;;;;;;10.57;3.50;;;35.60;40.30;;;;;;4995310;28;20030;-65
2021/06/14 10:24:09;;;;;;;10.23;3.45;;;35.50;40.20;;;;;;4993711;28;20072;-65
2021/06/14 10:26:37;;;;;;;8.10;3.55;;;35.40;39.90;;;;;;4992852;28;20553;-65
2021/06/14 10:29:06;;;;;;;9.00;3.38;;;35.30;40.20;;;;;;4992765;28;20102;-66
2021/06/14 10:31:32;;;;;;;;;;;35.30;40.00;;;;;;4991397;28;20057;-65
2021/06/14 10:33:57;;;;;;;7.20;3.40;;;35.20;40.30;;;;;;4993268;28;19948;-65
2021/06/14 10:36:25;;;;;;;6.70;3.33;;;35.10;39.70;;;;;;4991540;28;20014;-65
2021/06/14 10:38:52;;;;;;;9.63;3.67;;;35.00;39.30;;;;;;4994620;28;20027;-65
2021/06/14 10:41:19;;;;;;;7.97;3.47;;;34.90;39.50;;;;;;5001563;28;20038;-65
2021/06/14 10:43:46;;;;;;;10.85;3.17;;;34.90;39.70;;;;;;5000982;28;20033;-65
2021/06/14 10:46:14;;;;;;;9.40;3.63;;;34.90;39.50;;;;;;5011504;28;20057;-65
2021/06/14 10:48:40;;;;;;;13.27;3.08;;;34.90;38.80;;;;;;5010250;28;20057;-65
2021/06/14 10:51:17;;;;;;;10.75;3.55;;;34.90;39.20;;;;;;4994521;28;20026;-66
2021/06/14 10:53:50;;;;;;;7.38;3.25;;;34.90;40.00;;;;;;4995219;28;20423;-65
2021/06/14 10:56:18;;;;;;;6.22;2.65;;;34.90;40.20;;;;;;4990217;28;20113;-66
2021/06/14 10:59:07;;;;;;;8.20;3.17;;;34.90;40.00;;;;;;4991161;28;20022;-64
2021/06/14 11:01:38;;;;;;;9.77;3.15;;;35.00;41.00;;;;;;4992025;28;20256;-64
2021/06/14 11:04:05;;;;;;;8.20;3.72;;;35.10;40.90;;;;;;4992358;28;20130;-64
2021/06/14 11:06:34;;;;;;;16.15;4.05;;;35.20;39.40;;;;;;4991125;28;20015;-65
2021/06/14 11:09:10;;;;;;;;;;;35.20;40.40;;;;;;4998447;28;20017;-65
2021/06/14 11:11:46;;;;;;;8.80;2.95;;;35.20;40.80;;;;;;4992573;28;19910;-65
2021/06/14 11:14:12;;;;;;;13.02;3.40;;;35.20;39.80;;;;;;4991019;28;20221;-65
2021/06/14 11:16:39;;;;;;;9.25;3.70;;;35.20;40.60;;;;;;4992250;28;20476;-65
2021/06/14 11:19:07;;;;;;;7.13;3.67;;;35.20;39.90;;;;;;4992569;28;20022;-65
2021/06/14 11:21:33;;;;;;;9.57;3.63;;;35.20;39.70;;;;;;4989678;28;20022;-65
2021/06/14 11:24:11;;;;;;;8.75;2.67;;;35.10;40.20;;;;;;4999600;28;20054;-65
2021/06/14 11:26:38;;;;;;;8.32;3.83;;;35.10;40.10;;;;;;4997172;28;20026;-65
2021/06/14 11:29:17;;;;;;;8.43;2.90;;;35.00;39.80;;;;;;5001560;28;20057;-65
2021/06/14 11:32:01;;;;;;;6.10;3.03;;;35.00;40.60;;;;;;5010080;28;20028;-65
2021/06/14 11:34:27;;;;;;;14.82;3.90;;;35.00;41.20;;;;;;5000996;28;20057;-64
2021/06/14 11:36:56;;;;;;;7.75;2.97;;;35.00;41.20;;;;;;5005657;28;20081;-63
2021/06/14 11:39:24;;;;;;;12.73;3.72;;;35.00;40.50;;;;;;5000147;28;20018;-64
2021/06/14 11:41:51;;;;;;;11.38;3.97;;;35.10;41.50;;;;;;5006378;28;20022;-64
2021/06/14 11:44:28;;;;;;;17.90;3.00;;;35.10;41.50;;;;;;5001013;28;20065;-64
2021/06/14 11:47:13;;;;;;;7.68;2.65;;;35.10;41.40;;;;;;5002555;28;20028;-64
2021/06/14 11:49:39;;;;;;;5.45;3.22;;;35.10;40.80;;;;;;5009061;28;20022;-64
2021/06/14 11:52:35;;;;;;;9.70;3.42;;;35.00;40.70;;;;;;4997738;28;20026;-64
2021/06/14 11:55:12;;;;;;;7.40;2.83;;;35.00;40.40;;;;;;5003274;28;20408;-65
2021/06/14 11:57:43;;;;;;;8.27;2.53;;;34.90;40.50;;;;;;5008251;28;20128;-64
2021/06/14 12:00:26;;;;;;;14.32;3.63;;;34.90;40.80;;;;;;5019254;28;20014;-64
2021/06/14 12:02:52;;;;;;;6.95;2.42;;;34.90;40.30;;;;;;5007502;28;20030;-64
2021/06/14 12:05:29;;;;;;;10.90;2.88;;;34.80;39.90;;;;;;5010823;28;20026;-64
2021/06/14 12:07:54;;;;;;;10.02;2.92;;;34.90;40.10;;;;;;5016335;28;20026;-64
2021/06/14 12:10:23;;;;;;;6.45;3.00;;;34.70;39.70;;;;;;5013935;28;20044;-64
2021/06/14 12:13:11;;;;;;;7.57;2.95;;;34.60;40.40;;;;;;5010525;28;20053;-64
2021/06/14 12:15:40;;;;;;;9.07;3.03;;;34.40;39.90;;;;;;5001841;28;20542;-64
2021/06/14 12:18:07;;;;;;;10.35;2.70;;;34.40;40.50;;;;;;4997580;28;20530;-64
2021/06/14 12:20:35;;;;;;;8.25;2.55;;;34.50;40.20;;;;;;5002075;28;20041;-64
2021/06/14 12:23:04;;;;;;;10.63;2.50;;;34.40;40.20;;;;;;5007365;28;20052;-64
2021/06/14 12:25:32;;;;;;;8.15;2.47;;;34.30;39.50;;;;;;5005872;28;20018;-64
2021/06/14 12:28:03;;;;;;;5.35;2.47;;;34.30;40.30;;;;;;5008773;28;20049;-64
2021/06/14 12:30:30;;;;;;;4.30;2.08;;;34.20;39.80;;;;;;5009993;28;20416;-64
2021/06/14 12:32:56;;;;;;;5.88;2.53;;;34.20;40.20;;;;;;5003598;28;20019;-64
2021/06/14 12:35:23;;;;;;;9.98;2.67;;;34.20;40.40;;;;;;5009086;28;20030;-64
2021/06/14 12:37:50;;;;;;;7.47;2.90;;;34.20;40.40;;;;;;4998310;28;20031;-64
2021/06/14 12:40:24;;;;;;;6.57;2.78;;;34.20;40.80;;;;;;4998230;28;20435;-64
2021/06/14 12:43:01;;;;;;;8.35;2.72;;;34.10;40.40;;;;;;5002072;28;20027;-64
2021/06/14 12:45:28;;;;;;;8.85;2.85;;;34.20;40.90;;;;;;4995591;28;20026;-65
2021/06/14 12:47:56;;;;;;;5.57;2.72;;;34.20;39.90;;;;;;5006743;28;20447;-63
2021/06/14 12:50:28;;;;;;;8.00;2.67;;;34.10;40.40;;;;;;5013085;28;20018;-64